Time;durP1;ratioP1;P1;durP2;ratioP2;P2;SDS_P1;SDS_P2;PMS_P1;PMS_P2;Temp;Humidity;BMP_temperature;BMP_pressure;BME280_temperature;BME280_humidity;BME280_pressure;Samples;Min_cycle;Max_cycle;Signal;HPM_P1;HPM_P2
2023/12/05 00:01:33;;;;;;;0.30;0.30;;;1.80;99.90;;;;;;5070182;28;20181;-81
2023/12/05 00:03:59;;;;;;;0.30;0.30;;;1.80;99.90;;;;;;5070560;28;20231;-75
2023/12/05 00:06:25;;;;;;;0.30;0.30;;;1.80;99.90;;;;;;5071711;28;20174;-81
2023/12/05 00:08:50;;;;;;;0.30;0.30;;;1.80;99.90;;;;;;5069966;28;20672;-75
2023/12/05 00:11:16;;;;;;;0.30;0.30;;;1.80;99.90;;;;;;5070059;28;20272;-74
2023/12/05 00:13:42;;;;;;;0.30;0.30;;;1.80;99.90;;;;;;5071749;28;20217;-74
2023/12/05 00:16:09;;;;;;;0.30;0.30;;;1.80;99.90;;;;;;5069741;28;20229;-82
2023/12/05 00:18:36;;;;;;;0.30;0.30;;;1.80;99.90;;;;;;5069916;28;20453;-81
2023/12/05 00:21:02;;;;;;;0.30;0.30;;;1.80;99.90;;;;;;5069926;28;20645;-81
2023/12/05 00:23:28;;;;;;;0.30;0.30;;;1.80;99.90;;;;;;5086456;28;20209;-75
2023/12/05 00:25:53;;;;;;;0.30;0.30;;;1.80;99.90;;;;;;5070934;28;20380;-79
2023/12/05 00:28:19;;;;;;;0.30;0.30;;;1.80;99.90;;;;;;5071120;28;20204;-76
2023/12/05 00:30:45;;;;;;;0.30;0.30;;;1.80;99.90;;;;;;5069651;28;20173;-79
2023/12/05 00:33:11;;;;;;;0.30;0.30;;;1.90;99.90;;;;;;5071334;28;20416;-75
2023/12/05 00:35:36;;;;;;;0.30;0.20;;;1.80;99.90;;;;;;5069580;28;20234;-81
2023/12/05 00:38:02;;;;;;;0.30;0.30;;;1.80;99.90;;;;;;5070886;28;20197;-82
2023/12/05 00:40:29;;;;;;;0.30;0.30;;;1.90;99.90;;;;;;5069465;28;20213;-74
2023/12/05 00:42:55;;;;;;;0.30;0.30;;;1.90;99.90;;;;;;5070812;28;20192;-74
2023/12/05 00:45:22;;;;;;;0.93;0.93;;;1.90;99.90;;;;;;5070904;28;20196;-75
2023/12/05 00:47:48;;;;;;;0.30;0.20;;;1.90;99.90;;;;;;5069292;28;20546;-81
2023/12/05 00:50:14;;;;;;;0.30;0.30;;;1.90;99.90;;;;;;5070584;28;20256;-75
2023/12/05 00:52:39;;;;;;;0.30;0.30;;;1.90;99.90;;;;;;5070813;28;20690;-74
2023/12/05 00:55:05;;;;;;;0.30;0.30;;;2.00;99.90;;;;;;5070546;28;20256;-75
2023/12/05 00:57:31;;;;;;;0.30;0.30;;;1.90;99.90;;;;;;5070305;28;20215;-75
2023/12/05 00:59:57;;;;;;;0.30;0.30;;;2.00;99.90;;;;;;5070040;28;20451;-75
2023/12/05 01:02:23;;;;;;;0.30;0.30;;;2.00;99.90;;;;;;5070123;28;20177;-81
2023/12/05 01:04:49;;;;;;;0.30;0.30;;;2.00;99.90;;;;;;5068983;28;20495;-74
2023/12/05 01:07:14;;;;;;;0.30;0.20;;;2.00;99.90;;;;;;5068921;28;20509;-81
2023/12/05 01:09:40;;;;;;;0.30;0.30;;;2.10;99.90;;;;;;5085331;28;20343;-81
2023/12/05 01:12:10;;;;;;;0.30;0.30;;;2.10;99.90;;;;;;5069209;28;20206;-74
2023/12/05 01:14:36;;;;;;;0.30;0.30;;;2.10;99.90;;;;;;5069984;28;20189;-81
2023/12/05 01:17:02;;;;;;;0.30;0.30;;;2.20;99.90;;;;;;5069016;28;20240;-75
2023/12/05 01:19:28;;;;;;;0.30;0.30;;;2.20;99.90;;;;;;5070315;28;20502;-74
2023/12/05 01:21:54;;;;;;;0.30;0.30;;;2.20;99.90;;;;;;5068675;28;20580;-82
2023/12/05 01:24:19;;;;;;;0.30;0.30;;;2.20;99.90;;;;;;5085257;28;20222;-81
2023/12/05 01:26:45;;;;;;;0.30;0.30;;;2.20;99.90;;;;;;5070243;28;20173;-81
2023/12/05 01:29:10;;;;;;;0.30;0.30;;;2.20;99.90;;;;;;5070038;28;20189;-74
2023/12/05 01:31:36;;;;;;;0.30;0.30;;;2.20;99.90;;;;;;5068708;28;20518;-81
2023/12/05 01:34:02;;;;;;;0.30;0.30;;;2.30;99.90;;;;;;5070179;28;20218;-81
2023/12/05 01:36:28;;;;;;;0.30;0.30;;;2.30;99.90;;;;;;5068671;28;20570;-77
2023/12/05 01:38:54;;;;;;;0.30;0.30;;;2.30;99.90;;;;;;5069600;28;20539;-81
2023/12/05 01:41:20;;;;;;;0.30;0.30;;;2.30;99.90;;;;;;5069604;28;20230;-81
2023/12/05 01:43:45;;;;;;;0.30;0.30;;;2.40;99.90;;;;;;5069991;28;20205;-75
2023/12/05 01:46:12;;;;;;;0.30;0.30;;;2.40;99.90;;;;;;5069582;28;20762;-75
2023/12/05 01:48:40;;;;;;;0.30;0.30;;;2.40;99.90;;;;;;5069180;28;20204;-82
2023/12/05 01:51:07;;;;;;;0.30;0.30;;;2.30;99.90;;;;;;5068379;28;20341;-74
2023/12/05 01:53:35;;;;;;;0.30;0.30;;;2.30;99.90;;;;;;5069734;28;20249;-76
2023/12/05 01:56:03;;;;;;;0.30;0.30;;;2.30;99.90;;;;;;5069427;28;20205;-75
2023/12/05 01:58:30;;;;;;;0.30;0.30;;;2.20;99.90;;;;;;5067635;28;20212;-82
2023/12/05 02:00:56;;;;;;;0.30;0.30;;;2.20;99.90;;;;;;5084827;28;20188;-81
2023/12/05 02:03:22;;;;;;;0.30;0.22;;;2.20;99.90;;;;;;5069280;28;20193;-81
2023/12/05 02:05:48;;;;;;;0.30;0.30;;;2.10;99.90;;;;;;5069635;28;20181;-78
2023/12/05 02:08:17;;;;;;;0.30;0.30;;;2.20;99.90;;;;;;5069076;28;20590;-75
2023/12/05 02:10:43;;;;;;;0.30;0.30;;;2.10;99.90;;;;;;5069088;28;20388;-75
2023/12/05 02:13:09;;;;;;;0.30;0.20;;;2.10;99.90;;;;;;5069291;28;20197;-75
2023/12/05 02:15:35;;;;;;;0.30;0.20;;;2.10;99.90;;;;;;5067539;28;20612;-82
2023/12/05 02:18:23;;;;;;;0.30;0.30;;;2.10;99.90;;;;;;5084237;28;20205;-82
2023/12/05 02:21:05;;;;;;;0.30;0.30;;;2.10;99.90;;;;;;5068691;28;20168;-75
2023/12/05 02:23:59;;;;;;;0.30;0.30;;;2.10;99.90;;;;;;5068981;28;20224;-75
2023/12/05 02:26:42;;;;;;;0.30;0.30;;;2.10;99.90;;;;;;5069396;28;20192;-82
2023/12/05 02:29:07;;;;;;;0.30;0.30;;;2.00;99.90;;;;;;5084252;28;20204;-75
2023/12/05 02:31:33;;;;;;;0.30;0.30;;;2.00;99.90;;;;;;5083449;28;20183;-81
2023/12/05 02:33:59;;;;;;;0.30;0.30;;;2.00;99.90;;;;;;5068187;28;20200;-75
2023/12/05 02:37:06;;;;;;;0.30;0.30;;;2.00;99.90;;;;;;5068601;28;20438;-81
2023/12/05 02:39:50;;;;;;;0.30;0.30;;;2.00;99.90;;;;;;5068399;28;20471;-75
2023/12/05 02:42:20;;;;;;;0.30;0.30;;;2.10;99.90;;;;;;5084317;28;20185;-75
2023/12/05 02:44:51;;;;;;;0.30;0.30;;;2.10;99.90;;;;;;5068758;28;20612;-82
2023/12/05 02:47:19;;;;;;;0.30;0.30;;;2.10;99.90;;;;;;5084778;28;20228;-75
2023/12/05 02:49:46;;;;;;;0.30;0.20;;;2.20;99.90;;;;;;5068545;28;20685;-75
2023/12/05 02:52:11;;;;;;;0.30;0.30;;;2.20;99.90;;;;;;5068858;28;20186;-75
2023/12/05 02:54:37;;;;;;;0.30;0.30;;;2.20;99.90;;;;;;5084314;28;20197;-75
2023/12/05 02:57:03;;;;;;;0.30;0.20;;;2.20;99.90;;;;;;5084315;28;20708;-82
2023/12/05 02:59:29;;;;;;;0.30;0.30;;;2.20;99.90;;;;;;5083602;28;20623;-81
2023/12/05 03:01:54;;;;;;;0.30;0.30;;;2.30;99.90;;;;;;5067374;28;20577;-82
2023/12/05 03:04:20;;;;;;;0.30;0.30;;;2.30;99.90;;;;;;5068333;28;20189;-82
2023/12/05 03:06:46;;;;;;;0.30;0.20;;;2.40;99.90;;;;;;5068181;28;20177;-82
2023/12/05 03:09:12;;;;;;;0.30;0.20;;;2.40;99.90;;;;;;5067195;28;20215;-75
2023/12/05 03:11:37;;;;;;;0.30;0.30;;;2.40;99.90;;;;;;5066878;28;20177;-81
2023/12/05 03:14:06;;;;;;;0.30;0.20;;;2.40;99.90;;;;;;5084060;28;20220;-77
2023/12/05 03:16:31;;;;;;;0.30;0.20;;;2.50;99.90;;;;;;5068443;28;20432;-82
2023/12/05 03:18:57;;;;;;;0.30;0.20;;;2.50;99.90;;;;;;5068512;28;20216;-82
2023/12/05 03:21:23;;;;;;;0.30;0.30;;;2.50;99.90;;;;;;5067937;28;20615;-75
2023/12/05 03:23:48;;;;;;;0.30;0.23;;;2.60;99.90;;;;;;5068639;28;20415;-75
2023/12/05 03:26:21;;;;;;;0.30;0.20;;;2.60;99.90;;;;;;5067347;28;20574;-77
2023/12/05 03:28:51;;;;;;;0.30;0.30;;;2.70;99.90;;;;;;5068438;28;20632;-82
2023/12/05 03:31:17;;;;;;;0.30;0.30;;;2.70;99.90;;;;;;5066320;28;20571;-81
2023/12/05 03:33:43;;;;;;;0.30;0.20;;;2.70;99.90;;;;;;5066771;28;20570;-82
2023/12/05 03:36:10;;;;;;;0.30;0.20;;;2.70;99.90;;;;;;5068055;28;20310;-81
2023/12/05 03:38:38;;;;;;;0.30;0.30;;;2.70;99.90;;;;;;5066337;28;20469;-75
2023/12/05 03:41:05;;;;;;;0.30;0.20;;;2.80;99.90;;;;;;5066690;28;20205;-75
2023/12/05 03:43:30;;;;;;;0.30;0.30;;;2.80;99.90;;;;;;5066918;28;20205;-82
2023/12/05 03:45:56;;;;;;;0.30;0.30;;;2.80;99.90;;;;;;5071707;28;20712;-81
2023/12/05 03:48:22;;;;;;;0.30;0.20;;;2.90;99.90;;;;;;5070303;28;20296;-75
2023/12/05 03:50:47;;;;;;;0.30;0.20;;;2.90;99.90;;;;;;5071726;28;20211;-75
2023/12/05 03:53:13;;;;;;;0.30;0.30;;;2.90;99.90;;;;;;5072073;28;20354;-75
2023/12/05 03:55:39;;;;;;;0.30;0.20;;;2.90;99.90;;;;;;5072047;28;20347;-82
2023/12/05 03:58:04;;;;;;;0.30;0.27;;;2.90;99.90;;;;;;5071662;28;20326;-75
2023/12/05 04:00:30;;;;;;;0.30;0.30;;;2.90;99.90;;;;;;5071537;28;20204;-75
2023/12/05 04:02:56;;;;;;;0.30;0.20;;;2.90;99.90;;;;;;5070188;28;20213;-81
2023/12/05 04:05:22;;;;;;;0.30;0.30;;;2.90;99.90;;;;;;5071894;28;20381;-76
2023/12/05 04:07:48;;;;;;;0.30;0.20;;;2.90;99.90;;;;;;5071162;28;20927;-75
2023/12/05 04:10:14;;;;;;;0.30;0.20;;;3.00;99.90;;;;;;5071619;28;20565;-81
2023/12/05 04:12:40;;;;;;;0.30;0.20;;;3.10;99.90;;;;;;5071605;28;20246;-82
2023/12/05 04:15:07;;;;;;;0.30;0.20;;;3.10;99.90;;;;;;5071360;28;20209;-75
2023/12/05 04:17:33;;;;;;;0.30;0.30;;;3.20;99.90;;;;;;5069892;28;20231;-82
2023/12/05 04:19:59;;;;;;;0.30;0.30;;;3.20;99.90;;;;;;5070771;28;20212;-81
2023/12/05 04:22:24;;;;;;;0.30;0.20;;;3.20;99.90;;;;;;5070138;28;20272;-82
2023/12/05 04:24:50;;;;;;;0.30;0.20;;;3.20;99.90;;;;;;5071105;28;20303;-75
2023/12/05 04:27:16;;;;;;;0.30;0.30;;;3.20;99.90;;;;;;5071496;28;20695;-81
2023/12/05 04:29:45;;;;;;;0.30;0.20;;;3.20;99.90;;;;;;5070888;28;20189;-84
2023/12/05 04:32:11;;;;;;;0.30;0.22;;;3.20;99.90;;;;;;5070215;28;20197;-83
2023/12/05 04:34:40;;;;;;;0.30;0.30;;;3.20;99.90;;;;;;5069683;28;20201;-80
2023/12/05 04:37:06;;;;;;;0.30;0.20;;;3.20;99.90;;;;;;5071322;28;20398;-80
2023/12/05 04:39:31;;;;;;;0.30;0.30;;;3.20;99.90;;;;;;5069225;28;20216;-76
2023/12/05 04:41:57;;;;;;;0.30;0.20;;;3.20;99.90;;;;;;5071020;28;20443;-78
2023/12/05 04:44:23;;;;;;;0.30;0.30;;;3.20;99.90;;;;;;5070698;28;20624;-78
2023/12/05 04:46:49;;;;;;;0.30;0.30;;;3.20;99.90;;;;;;5070927;28;20169;-78
2023/12/05 04:49:15;;;;;;;0.30;0.20;;;3.20;99.90;;;;;;5070707;28;20189;-78
2023/12/05 04:51:40;;;;;;;0.30;0.30;;;3.20;99.90;;;;;;5069006;28;20181;-78
2023/12/05 04:54:06;;;;;;;0.30;0.20;;;3.20;99.90;;;;;;5070757;28;20433;-78
2023/12/05 04:56:31;;;;;;;0.30;0.20;;;3.20;99.90;;;;;;5069833;28;20173;-78
2023/12/05 04:58:57;;;;;;;0.30;0.20;;;3.20;99.90;;;;;;5070225;28;20244;-78
2023/12/05 05:01:23;;;;;;;0.53;0.53;;;3.20;99.90;;;;;;5070482;28;20627;-78
2023/12/05 05:03:48;;;;;;;0.30;0.30;;;3.20;99.90;;;;;;5070287;28;20194;-77
2023/12/05 05:06:14;;;;;;;0.30;0.30;;;3.20;99.90;;;;;;5085687;28;20177;-78
2023/12/05 05:08:40;;;;;;;0.30;0.30;;;3.20;99.90;;;;;;5070528;28;20266;-77
2023/12/05 05:11:06;;;;;;;0.30;0.27;;;3.20;99.90;;;;;;5069475;28;20264;-77
2023/12/05 05:13:31;;;;;;;0.30;0.30;;;3.20;99.90;;;;;;5070406;28;20201;-77
2023/12/05 05:15:57;;;;;;;0.30;0.20;;;3.20;99.90;;;;;;5072691;28;20808;-78
2023/12/05 05:18:23;;;;;;;0.30;0.20;;;3.20;99.90;;;;;;5068528;28;20205;-77
2023/12/05 05:20:49;;;;;;;0.30;0.20;;;3.20;99.90;;;;;;5075189;28;20168;-77
2023/12/05 05:23:14;;;;;;;0.30;0.30;;;3.20;99.90;;;;;;5092666;28;20688;-78
2023/12/05 05:25:40;;;;;;;0.30;0.20;;;3.10;99.90;;;;;;5102246;28;20368;-77
2023/12/05 05:28:09;;;;;;;0.30;0.30;;;3.10;99.90;;;;;;5084922;28;20207;-77
2023/12/05 05:30:35;;;;;;;0.30;0.20;;;3.00;99.90;;;;;;5082932;28;20391;-77
2023/12/05 05:33:00;;;;;;;0.30;0.20;;;3.00;99.90;;;;;;5081915;28;20271;-77
2023/12/05 05:35:26;;;;;;;0.30;0.30;;;3.00;99.90;;;;;;5085459;28;20379;-77
2023/12/05 05:37:52;;;;;;;0.30;0.30;;;3.00;99.90;;;;;;5080854;28;21333;-77
2023/12/05 05:40:18;;;;;;;0.30;0.20;;;2.90;99.90;;;;;;5084570;28;20999;-77
2023/12/05 05:42:44;;;;;;;0.30;0.30;;;2.90;99.90;;;;;;5080064;28;20429;-77
2023/12/05 05:45:11;;;;;;;0.30;0.30;;;2.80;99.90;;;;;;5081654;28;20203;-77
2023/12/05 05:47:37;;;;;;;0.30;0.30;;;2.80;99.90;;;;;;5082328;28;20524;-77
2023/12/05 05:50:03;;;;;;;0.30;0.27;;;2.80;99.90;;;;;;5079056;28;20191;-77
2023/12/05 05:52:29;;;;;;;0.30;0.20;;;2.80;99.90;;;;;;5083293;28;20618;-77
2023/12/05 05:54:55;;;;;;;0.30;0.30;;;2.80;99.90;;;;;;5084291;28;20215;-78
2023/12/05 05:57:21;;;;;;;0.30;0.20;;;2.90;99.90;;;;;;5080733;28;20184;-79
2023/12/05 05:59:47;;;;;;;0.30;0.20;;;2.80;99.90;;;;;;5089777;28;20231;-75
2023/12/05 06:02:13;;;;;;;0.30;0.27;;;2.90;99.90;;;;;;5096763;28;20436;-76
2023/12/05 06:04:40;;;;;;;0.30;0.30;;;2.80;99.90;;;;;;5100999;28;20427;-76
2023/12/05 06:07:07;;;;;;;0.30;0.30;;;2.90;99.90;;;;;;5093742;28;20189;-78
2023/12/05 06:09:33;;;;;;;0.30;0.20;;;2.90;99.90;;;;;;5091818;28;20847;-75
2023/12/05 06:11:58;;;;;;;0.30;0.20;;;2.90;99.90;;;;;;5109886;27;20279;-78
2023/12/05 06:14:24;;;;;;;0.30;0.30;;;3.00;99.90;;;;;;5096791;28;20416;-78
2023/12/05 06:16:50;;;;;;;0.30;0.30;;;3.10;99.90;;;;;;5096501;28;20227;-77
2023/12/05 06:19:16;;;;;;;0.30;0.30;;;3.10;99.90;;;;;;5093004;28;20443;-78
2023/12/05 06:21:45;;;;;;;0.30;0.30;;;3.10;99.90;;;;;;5093896;28;20660;-75
2023/12/05 06:24:11;;;;;;;0.30;0.20;;;3.10;99.90;;;;;;5077007;28;20210;-78
2023/12/05 06:26:37;;;;;;;0.30;0.20;;;3.10;99.90;;;;;;5081115;28;20247;-76
2023/12/05 06:29:05;;;;;;;0.30;0.30;;;3.00;99.90;;;;;;5077183;28;20205;-78
2023/12/05 06:31:31;;;;;;;0.30;0.30;;;3.00;99.90;;;;;;5076231;28;20840;-78
2023/12/05 06:33:59;;;;;;;0.30;0.30;;;3.00;99.90;;;;;;5073746;28;20206;-76
2023/12/05 06:36:24;;;;;;;0.30;0.20;;;3.00;99.90;;;;;;5078408;28;20184;-77
2023/12/05 06:38:50;;;;;;;0.30;0.30;;;3.00;99.90;;;;;;5074807;28;20293;-76
2023/12/05 06:41:15;;;;;;;0.30;0.30;;;3.00;99.90;;;;;;5085826;28;20176;-75
2023/12/05 06:43:41;;;;;;;0.30;0.30;;;3.00;99.90;;;;;;5085823;28;20250;-78
2023/12/05 06:46:07;;;;;;;0.30;0.30;;;3.00;99.90;;;;;;5087711;28;20383;-76
2023/12/05 06:48:33;;;;;;;0.30;0.30;;;3.00;99.90;;;;;;5091915;28;20204;-76
2023/12/05 06:50:59;;;;;;;0.30;0.30;;;3.00;99.90;;;;;;5079240;28;20410;-77
2023/12/05 06:53:24;;;;;;;0.30;0.30;;;3.00;99.90;;;;;;5080240;28;20302;-78
2023/12/05 06:55:50;;;;;;;0.30;0.30;;;3.00;99.90;;;;;;5081932;28;20454;-76
2023/12/05 06:58:16;;;;;;;0.30;0.30;;;3.00;99.90;;;;;;5097290;27;20840;-77
2023/12/05 07:00:42;;;;;;;0.30;0.30;;;3.10;99.90;;;;;;5081147;28;20220;-76
2023/12/05 07:03:08;;;;;;;0.30;0.30;;;3.10;99.90;;;;;;5085081;28;20200;-76
2023/12/05 07:05:33;;;;;;;0.30;0.30;;;3.10;99.90;;;;;;5082290;28;20674;-77
2023/12/05 07:08:00;;;;;;;0.30;0.30;;;3.10;99.90;;;;;;5093903;28;20415;-77
2023/12/05 07:10:27;;;;;;;0.30;0.22;;;3.10;99.90;;;;;;5086052;28;20172;-77
2023/12/05 07:12:53;;;;;;;0.30;0.30;;;3.20;99.90;;;;;;5082969;28;20556;-78
2023/12/05 07:15:18;;;;;;;0.30;0.27;;;3.30;99.90;;;;;;5085712;28;20173;-78
2023/12/05 07:17:44;;;;;;;0.30;0.30;;;3.30;99.90;;;;;;5084898;28;20180;-76
2023/12/05 07:20:10;;;;;;;0.30;0.30;;;3.30;99.90;;;;;;5089639;28;20773;-76
2023/12/05 07:22:36;;;;;;;0.30;0.30;;;3.40;99.90;;;;;;5086600;28;20176;-77
2023/12/05 07:25:02;;;;;;;0.30;0.30;;;3.40;99.90;;;;;;5090191;28;20400;-76
2023/12/05 07:27:28;;;;;;;0.30;0.30;;;3.40;99.90;;;;;;5082814;28;20189;-76
2023/12/05 07:29:54;;;;;;;0.30;0.20;;;3.40;99.90;;;;;;5078099;28;20199;-75
2023/12/05 07:32:19;;;;;;;0.30;0.20;;;3.40;99.90;;;;;;5087917;28;20192;-77
2023/12/05 07:34:45;;;;;;;0.30;0.20;;;3.40;99.90;;;;;;5085765;28;20205;-78
2023/12/05 07:37:11;;;;;;;0.30;0.30;;;3.40;99.90;;;;;;5086252;28;20246;-75
2023/12/05 07:39:37;;;;;;;0.30;0.30;;;3.50;99.90;;;;;;5082467;28;20447;-78
2023/12/05 07:42:03;;;;;;;0.30;0.30;;;3.50;99.90;;;;;;5087036;28;20279;-78
2023/12/05 07:44:28;;;;;;;0.30;0.30;;;3.50;99.90;;;;;;5080976;28;20407;-76
2023/12/05 07:46:54;;;;;;;0.30;0.20;;;3.60;99.90;;;;;;5088149;28;20557;-77
2023/12/05 07:49:20;;;;;;;0.30;0.30;;;3.60;99.90;;;;;;5087626;28;20211;-76
2023/12/05 07:51:48;;;;;;;0.30;0.30;;;3.60;99.90;;;;;;5085250;28;20187;-76
2023/12/05 07:54:13;;;;;;;0.30;0.30;;;3.60;99.90;;;;;;5088577;28;20201;-77
2023/12/05 07:56:39;;;;;;;0.30;0.20;;;3.70;99.90;;;;;;5085676;28;20737;-78
2023/12/05 07:59:05;;;;;;;0.30;0.30;;;3.60;99.90;;;;;;5091858;28;20208;-77
2023/12/05 08:01:31;;;;;;;0.30;0.20;;;3.70;99.90;;;;;;5089198;28;20172;-78
2023/12/05 08:03:57;;;;;;;0.30;0.20;;;3.70;99.90;;;;;;5087821;28;20717;-78
2023/12/05 08:06:24;;;;;;;0.30;0.20;;;3.70;99.90;;;;;;5089895;28;20478;-77
2023/12/05 08:08:50;;;;;;;0.30;0.20;;;3.70;99.90;;;;;;5087980;28;20200;-76
2023/12/05 08:11:17;;;;;;;0.30;0.30;;;3.80;99.90;;;;;;5077874;28;20175;-76
2023/12/05 08:13:42;;;;;;;0.30;0.30;;;3.80;99.90;;;;;;5085632;28;20230;-78
2023/12/05 08:16:08;;;;;;;0.30;0.30;;;3.80;99.90;;;;;;5083229;28;20310;-76
2023/12/05 08:18:34;;;;;;;0.30;0.20;;;3.80;99.90;;;;;;5085940;28;20211;-78
2023/12/05 08:21:00;;;;;;;0.30;0.20;;;3.80;99.90;;;;;;5089752;28;20181;-77
2023/12/05 08:23:25;;;;;;;0.30;0.30;;;3.80;99.90;;;;;;5087356;27;20721;-77
2023/12/05 08:25:51;;;;;;;0.30;0.30;;;3.80;99.90;;;;;;5088427;28;20802;-76
2023/12/05 08:28:17;;;;;;;0.30;0.30;;;3.80;99.90;;;;;;5082754;28;20366;-78
2023/12/05 08:30:42;;;;;;;0.30;0.20;;;3.80;99.90;;;;;;5090252;28;20204;-76
2023/12/05 08:33:09;;;;;;;0.30;0.20;;;3.80;99.90;;;;;;5087819;28;20287;-76
2023/12/05 08:35:34;;;;;;;0.30;0.20;;;3.80;99.90;;;;;;5088095;28;20180;-78
2023/12/05 08:38:00;;;;;;;0.30;0.20;;;3.80;99.90;;;;;;5088094;28;20220;-78
2023/12/05 08:40:25;;;;;;;0.30;0.20;;;3.80;99.90;;;;;;5093755;28;20805;-78
2023/12/05 08:42:51;;;;;;;0.30;0.20;;;3.80;99.90;;;;;;5091218;28;20429;-77
2023/12/05 08:45:18;;;;;;;0.30;0.20;;;3.80;99.90;;;;;;5090173;28;20550;-77
2023/12/05 08:47:44;;;;;;;0.30;0.30;;;3.80;99.90;;;;;;5086357;28;20210;-78
2023/12/05 08:50:10;;;;;;;0.30;0.28;;;3.80;99.90;;;;;;5088712;28;20180;-76
2023/12/05 08:52:36;;;;;;;0.30;0.20;;;3.80;99.90;;;;;;5084259;28;20383;-77
2023/12/05 08:55:02;;;;;;;0.30;0.20;;;3.70;99.90;;;;;;5078891;28;20172;-77
2023/12/05 08:57:27;;;;;;;0.30;0.20;;;3.80;99.90;;;;;;5086742;28;20628;-75
2023/12/05 08:59:53;;;;;;;0.30;0.20;;;3.70;99.90;;;;;;5083088;28;20208;-76
2023/12/05 09:02:19;;;;;;;0.30;0.30;;;3.70;99.90;;;;;;5094637;28;20243;-75
2023/12/05 09:04:45;;;;;;;0.30;0.20;;;3.70;99.90;;;;;;5085655;28;20319;-77
2023/12/05 09:07:11;;;;;;;0.30;0.30;;;3.70;99.90;;;;;;5111154;27;20267;-77
2023/12/05 09:09:41;;;;;;;0.30;0.30;;;3.70;99.90;;;;;;5084338;28;20264;-77
2023/12/05 09:12:07;;;;;;;0.30;0.20;;;3.70;99.90;;;;;;5092232;28;20403;-77
2023/12/05 09:14:34;;;;;;;0.30;0.20;;;3.70;99.90;;;;;;5078644;28;20724;-76
2023/12/05 09:17:01;;;;;;;0.30;0.20;;;3.70;99.90;;;;;;5086265;28;20372;-77
2023/12/05 09:19:26;;;;;;;0.30;0.30;;;3.60;99.90;;;;;;5080269;28;20298;-75
2023/12/05 09:21:52;;;;;;;0.30;0.20;;;3.70;99.90;;;;;;5081516;28;20221;-77
2023/12/05 09:24:18;;;;;;;0.30;0.20;;;3.70;99.90;;;;;;5083220;28;20324;-77
2023/12/05 09:26:43;;;;;;;0.30;0.20;;;3.70;99.90;;;;;;5083129;28;20168;-75
2023/12/05 09:29:09;;;;;;;0.30;0.30;;;3.80;99.90;;;;;;5091839;28;20495;-75
2023/12/05 09:31:35;;;;;;;0.30;0.20;;;3.80;99.90;;;;;;5083206;28;20181;-76
2023/12/05 09:34:03;;;;;;;0.30;0.20;;;3.90;99.90;;;;;;5090773;28;20764;-76
2023/12/05 09:36:30;;;;;;;0.30;0.20;;;3.90;99.90;;;;;;5095649;28;20176;-75
2023/12/05 09:38:56;;;;;;;0.30;0.20;;;3.90;99.90;;;;;;5086376;28;20220;-78
2023/12/05 09:41:22;;;;;;;0.30;0.20;;;4.00;99.90;;;;;;5091387;28;20175;-75
2023/12/05 09:43:52;;;;;;;0.30;0.30;;;4.10;99.90;;;;;;5088747;28;20208;-77
2023/12/05 09:46:21;;;;;;;0.30;0.20;;;4.10;99.90;;;;;;5091338;28;20180;-78
2023/12/05 09:48:48;;;;;;;0.30;0.20;;;4.10;99.90;;;;;;5082838;28;20200;-76
2023/12/05 09:51:17;;;;;;;0.30;0.20;;;4.20;99.90;;;;;;5080918;28;21249;-77
2023/12/05 09:53:47;;;;;;;0.30;0.30;;;4.30;99.90;;;;;;5082827;28;20212;-76
2023/12/05 09:56:14;;;;;;;0.30;0.30;;;4.30;99.90;;;;;;5088332;28;20524;-78
2023/12/05 09:58:45;;;;;;;0.30;0.20;;;4.40;99.90;;;;;;5086361;28;20697;-77
2023/12/05 10:01:15;;;;;;;0.30;0.20;;;4.50;99.90;;;;;;5089807;28;20179;-75
2023/12/05 10:03:44;;;;;;;0.30;0.30;;;4.50;99.90;;;;;;5089104;28;20231;-76
2023/12/05 10:06:11;;;;;;;0.30;0.20;;;4.50;99.90;;;;;;5082567;28;20177;-75
2023/12/05 10:08:37;;;;;;;0.30;0.30;;;4.60;99.90;;;;;;5078519;28;20626;-77
2023/12/05 10:11:04;;;;;;;0.30;0.30;;;4.60;99.90;;;;;;5089253;28;20188;-77
2023/12/05 10:13:31;;;;;;;0.30;0.20;;;4.70;99.90;;;;;;5086221;28;20258;-77
2023/12/05 10:15:58;;;;;;;0.30;0.20;;;4.70;99.90;;;;;;5094235;27;20228;-75
2023/12/05 10:18:27;;;;;;;0.30;0.22;;;4.80;99.90;;;;;;5078762;28;20258;-76
2023/12/05 10:20:54;;;;;;;0.30;0.20;;;4.90;99.90;;;;;;5082783;28;20252;-75
2023/12/05 10:23:20;;;;;;;0.30;0.20;;;4.90;99.90;;;;;;5080646;28;20219;-75
2023/12/05 10:25:46;;;;;;;0.30;0.20;;;5.00;99.90;;;;;;5079445;28;20283;-77
2023/12/05 10:28:12;;;;;;;0.30;0.30;;;5.00;99.90;;;;;;5089500;28;20188;-75
2023/12/05 10:30:39;;;;;;;0.30;0.20;;;5.10;99.90;;;;;;5079192;28;20670;-78
2023/12/05 10:33:15;;;;;;;0.30;0.20;;;5.10;99.90;;;;;;5079713;28;20204;-77
2023/12/05 10:35:43;;;;;;;0.30;0.30;;;5.20;99.90;;;;;;5090579;28;20706;-75
2023/12/05 10:38:17;;;;;;;0.30;0.20;;;5.20;99.90;;;;;;5096181;28;20199;-75
2023/12/05 10:40:56;;;;;;;0.30;0.30;;;5.30;99.90;;;;;;5097668;28;20664;-77
2023/12/05 10:43:24;;;;;;;0.30;0.30;;;5.40;99.90;;;;;;5091737;28;20192;-75
2023/12/05 10:45:50;;;;;;;0.30;0.20;;;5.40;99.90;;;;;;5089968;28;20204;-77
2023/12/05 10:48:17;;;;;;;0.30;0.20;;;5.40;99.90;;;;;;5077474;28;20736;-77
2023/12/05 10:50:46;;;;;;;0.30;0.20;;;5.40;99.90;;;;;;5085104;28;20214;-77
2023/12/05 10:53:12;;;;;;;0.30;0.30;;;5.40;99.90;;;;;;5076894;28;20200;-78
2023/12/05 10:55:38;;;;;;;0.30;0.30;;;5.50;99.90;;;;;;5077948;28;20196;-75
2023/12/05 10:58:04;;;;;;;0.30;0.30;;;5.50;99.90;;;;;;5077046;28;20257;-77
2023/12/05 11:00:31;;;;;;;0.30;0.30;;;5.40;99.90;;;;;;5075906;28;20450;-75
2023/12/05 11:02:57;;;;;;;0.30;0.20;;;5.40;99.90;;;;;;5092404;28;20203;-75
2023/12/05 11:05:24;;;;;;;0.30;0.23;;;5.30;99.90;;;;;;5077034;28;20187;-78
2023/12/05 11:07:51;;;;;;;0.30;0.20;;;5.40;99.90;;;;;;5078505;28;20186;-77
2023/12/05 11:10:17;;;;;;;0.30;0.30;;;5.40;99.90;;;;;;5084163;28;20187;-77
2023/12/05 11:12:46;;;;;;;0.30;0.20;;;5.40;99.90;;;;;;5080577;28;20177;-77
2023/12/05 11:15:16;;;;;;;0.30;0.30;;;5.50;99.90;;;;;;5076821;28;20943;-75
2023/12/05 11:17:48;;;;;;;0.30;0.30;;;5.50;99.90;;;;;;5078395;28;20224;-77
2023/12/05 11:20:23;;;;;;;0.30;0.30;;;5.50;99.90;;;;;;5078716;28;20221;-75
2023/12/05 11:22:58;;;;;;;0.30;0.30;;;5.60;99.90;;;;;;5083222;28;20229;-76
2023/12/05 11:25:52;;;;;;;0.30;0.20;;;5.70;99.90;;;;;;5085944;28;20188;-79
2023/12/05 11:29:00;;;;;;;0.30;0.30;;;5.70;99.90;;;;;;5085626;28;20211;-75
2023/12/05 11:31:48;;;;;;;0.30;0.30;;;5.80;99.90;;;;;;5081032;28;20190;-77
2023/12/05 11:34:33;;;;;;;0.30;0.20;;;5.80;99.90;;;;;;5098193;28;20212;-78
2023/12/05 11:37:04;;;;;;;0.30;0.20;;;5.80;99.90;;;;;;5076472;28;20189;-78
2023/12/05 11:39:31;;;;;;;0.30;0.20;;;5.80;99.90;;;;;;5082552;28;20773;-78
2023/12/05 11:42:15;;;;;;;0.30;0.30;;;5.80;99.90;;;;;;5077276;28;20185;-76
2023/12/05 11:44:42;;;;;;;2.28;2.15;;;5.80;99.90;;;;;;5071881;28;20340;-76
2023/12/05 11:47:16;;;;;;;0.30;0.20;;;5.80;99.90;;;;;;5068836;28;20273;-78
2023/12/05 11:49:49;;;;;;;0.30;0.20;;;5.80;99.90;;;;;;5070235;28;20295;-76
2023/12/05 11:52:15;;;;;;;0.30;0.20;;;5.90;99.90;;;;;;5070093;28;20418;-76
2023/12/05 11:54:44;;;;;;;0.30;0.20;;;5.90;99.90;;;;;;5069395;28;20485;-76
2023/12/05 11:57:18;;;;;;;1.63;1.63;;;5.90;99.90;;;;;;5070750;28;20241;-76
2023/12/05 11:59:45;;;;;;;0.30;0.30;;;5.80;99.90;;;;;;5077618;28;20618;-77
2023/12/05 12:02:32;;;;;;;0.30;0.20;;;5.90;99.90;;;;;;5074242;28;20597;-78
2023/12/05 12:05:05;;;;;;;0.30;0.20;;;5.90;99.90;;;;;;5066197;28;20680;-78
2023/12/05 12:07:31;;;;;;;1.85;1.75;;;6.00;99.90;;;;;;5070250;28;20882;-78
2023/12/05 12:09:57;;;;;;;0.30;0.20;;;6.00;99.90;;;;;;5072210;28;20295;-78
2023/12/05 12:12:24;;;;;;;0.30;0.30;;;6.00;99.90;;;;;;5080578;28;20263;-76
2023/12/05 12:14:50;;;;;;;6.38;6.13;;;6.00;99.90;;;;;;5076598;28;20629;-77
2023/12/05 12:17:15;;;;;;;0.30;0.30;;;6.10;99.90;;;;;;5080512;28;21223;-76
2023/12/05 12:19:42;;;;;;;0.30;0.20;;;6.10;99.90;;;;;;5077544;28;20220;-78
2023/12/05 12:22:08;;;;;;;0.30;0.22;;;6.10;99.90;;;;;;5079274;28;20523;-77
2023/12/05 12:24:36;;;;;;;0.30;0.20;;;6.10;99.90;;;;;;5083550;28;20322;-76
2023/12/05 12:27:02;;;;;;;0.30;0.25;;;6.10;99.90;;;;;;5086274;28;20181;-79
2023/12/05 12:29:27;;;;;;;0.30;0.20;;;6.10;99.90;;;;;;5083099;28;20971;-77
2023/12/05 12:32:09;;;;;;;0.30;0.20;;;6.10;99.90;;;;;;5073146;28;20395;-76
2023/12/05 12:34:34;;;;;;;0.30;0.20;;;6.10;99.90;;;;;;5076315;28;20275;-78
2023/12/05 12:37:01;;;;;;;0.30;0.20;;;6.10;99.90;;;;;;5072588;28;20188;-76
2023/12/05 12:39:29;;;;;;;0.30;0.30;;;6.10;99.90;;;;;;5081231;28;20306;-78
2023/12/05 12:42:00;;;;;;;2.17;2.08;;;6.10;99.90;;;;;;5077204;28;20204;-77
2023/12/05 12:44:27;;;;;;;0.30;0.20;;;6.20;99.90;;;;;;5074149;28;20212;-78
2023/12/05 12:46:53;;;;;;;0.30;0.20;;;6.20;99.90;;;;;;5072609;28;20184;-77
2023/12/05 12:49:19;;;;;;;0.30;0.20;;;6.20;99.90;;;;;;5076113;28;20257;-77
2023/12/05 12:51:45;;;;;;;0.30;0.20;;;6.30;99.90;;;;;;5077286;28;20180;-76
2023/12/05 12:54:11;;;;;;;0.30;0.20;;;6.30;99.90;;;;;;5075614;28;20210;-77
2023/12/05 12:56:39;;;;;;;4.63;4.43;;;6.40;99.90;;;;;;5071326;28;20192;-77
2023/12/05 12:59:06;;;;;;;0.30;0.20;;;6.40;99.90;;;;;;5073804;28;20224;-77